sensor_id;sensor_type;location;lat;lon;timestamp;temperature;humidity
46932;DHT22;32670;51.464;11.964;2023-04-06T00:00:59;21.40;47.50
46932;DHT22;32670;51.464;11.964;2023-04-06T00:03:24;21.40;47.30
46932;DHT22;32670;51.464;11.964;2023-04-06T00:05:50;21.40;46.20
46932;DHT22;32670;51.464;11.964;2023-04-06T00:08:16;21.40;46.80
46932;DHT22;32670;51.464;11.964;2023-04-06T00:10:41;21.40;46.90
46932;DHT22;32670;51.464;11.964;2023-04-06T00:13:07;21.50;47.10
46932;DHT22;32670;51.464;11.964;2023-04-06T00:15:33;21.40;47.10
46932;DHT22;32670;51.464;11.964;2023-04-06T00:17:59;21.40;47.20
46932;DHT22;32670;51.464;11.964;2023-04-06T00:20:24;21.40;47.30
46932;DHT22;32670;51.464;11.964;2023-04-06T00:22:50;21.40;48.00
46932;DHT22;32670;51.464;11.964;2023-04-06T00:25:16;21.50;47.40
46932;DHT22;32670;51.464;11.964;2023-04-06T00:27:41;21.40;47.40
46932;DHT22;32670;51.464;11.964;2023-04-06T00:30:07;21.40;47.50
46932;DHT22;32670;51.464;11.964;2023-04-06T00:32:34;21.40;47.70
46932;DHT22;32670;51.464;11.964;2023-04-06T00:35:01;21.50;47.70
46932;DHT22;32670;51.464;11.964;2023-04-06T00:37:26;21.50;47.90
46932;DHT22;32670;51.464;11.964;2023-04-06T00:39:52;21.50;47.80
46932;DHT22;32670;51.464;11.964;2023-04-06T00:42:18;21.50;47.70
46932;DHT22;32670;51.464;11.964;2023-04-06T00:44:51;21.50;48.00
46932;DHT22;32670;51.464;11.964;2023-04-06T00:47:17;21.50;48.00
46932;DHT22;32670;51.464;11.964;2023-04-06T00:49:42;21.50;47.80
46932;DHT22;32670;51.464;11.964;2023-04-06T00:52:07;21.50;47.90
46932;DHT22;32670;51.464;11.964;2023-04-06T00:54:33;21.50;47.80
46932;DHT22;32670;51.464;11.964;2023-04-06T00:56:58;21.50;48.00
46932;DHT22;32670;51.464;11.964;2023-04-06T00:59:24;21.50;47.90
46932;DHT22;32670;51.464;11.964;2023-04-06T01:01:53;21.50;47.90
46932;DHT22;32670;51.464;11.964;2023-04-06T01:04:18;21.50;48.00
46932;DHT22;32670;51.464;11.964;2023-04-06T01:06:44;21.60;47.90
46932;DHT22;32670;51.464;11.964;2023-04-06T01:09:10;21.60;48.20
46932;DHT22;32670;51.464;11.964;2023-04-06T01:11:36;21.60;48.40
46932;DHT22;32670;51.464;11.964;2023-04-06T01:14:01;21.60;48.70
46932;DHT22;32670;51.464;11.964;2023-04-06T01:16:27;21.60;48.60
46932;DHT22;32670;51.464;11.964;2023-04-06T01:18:53;21.60;48.40
46932;DHT22;32670;51.464;11.964;2023-04-06T01:21:18;21.60;48.30
46932;DHT22;32670;51.464;11.964;2023-04-06T01:23:45;21.60;48.30
46932;DHT22;32670;51.464;11.964;2023-04-06T01:26:11;21.60;48.40
46932;DHT22;32670;51.464;11.964;2023-04-06T01:28:40;21.60;48.50
46932;DHT22;32670;51.464;11.964;2023-04-06T01:31:07;21.60;48.60
46932;DHT22;32670;51.464;11.964;2023-04-06T01:33:33;21.60;48.60
46932;DHT22;32670;51.464;11.964;2023-04-06T01:35:58;21.60;48.50
46932;DHT22;32670;51.464;11.964;2023-04-06T01:38:24;21.60;48.50
46932;DHT22;32670;51.464;11.964;2023-04-06T01:40:50;21.60;48.50
46932;DHT22;32670;51.464;11.964;2023-04-06T01:43:16;21.60;48.50
46932;DHT22;32670;51.464;11.964;2023-04-06T01:45:41;21.60;48.60
46932;DHT22;32670;51.464;11.964;2023-04-06T01:48:07;21.60;48.60
46932;DHT22;32670;51.464;11.964;2023-04-06T01:50:33;21.60;48.60
46932;DHT22;32670;51.464;11.964;2023-04-06T01:52:58;21.60;48.70
46932;DHT22;32670;51.464;11.964;2023-04-06T01:55:24;21.60;48.70
46932;DHT22;32670;51.464;11.964;2023-04-06T01:57:49;21.70;48.80
46932;DHT22;32670;51.464;11.964;2023-04-06T02:00:15;21.60;48.70
46932;DHT22;32670;51.464;11.964;2023-04-06T02:02:41;21.60;48.70
46932;DHT22;32670;51.464;11.964;2023-04-06T02:05:07;21.70;48.90
46932;DHT22;32670;51.464;11.964;2023-04-06T02:07:32;21.60;48.90
46932;DHT22;32670;51.464;11.964;2023-04-06T02:09:58;21.70;48.90
46932;DHT22;32670;51.464;11.964;2023-04-06T02:12:23;21.70;49.10
46932;DHT22;32670;51.464;11.964;2023-04-06T02:14:49;21.70;49.20
46932;DHT22;32670;51.464;11.964;2023-04-06T02:17:14;21.70;49.20
46932;DHT22;32670;51.464;11.964;2023-04-06T02:19:40;21.70;49.10
46932;DHT22;32670;51.464;11.964;2023-04-06T02:22:05;21.70;49.20
46932;DHT22;32670;51.464;11.964;2023-04-06T02:24:31;21.70;49.20
46932;DHT22;32670;51.464;11.964;2023-04-06T02:26:56;21.70;49.00
46932;DHT22;32670;51.464;11.964;2023-04-06T02:29:22;21.70;49.30
46932;DHT22;32670;51.464;11.964;2023-04-06T02:31:47;21.70;49.30
46932;DHT22;32670;51.464;11.964;2023-04-06T02:34:13;21.70;49.40
46932;DHT22;32670;51.464;11.964;2023-04-06T02:36:43;21.70;49.30
46932;DHT22;32670;51.464;11.964;2023-04-06T02:39:09;21.70;49.30
46932;DHT22;32670;51.464;11.964;2023-04-06T02:41:35;21.70;49.30
46932;DHT22;32670;51.464;11.964;2023-04-06T02:44:01;21.70;49.40
46932;DHT22;32670;51.464;11.964;2023-04-06T02:46:26;21.70;49.30
46932;DHT22;32670;51.464;11.964;2023-04-06T02:48:52;21.70;49.30
46932;DHT22;32670;51.464;11.964;2023-04-06T02:51:17;21.70;49.30
46932;DHT22;32670;51.464;11.964;2023-04-06T02:53:42;21.70;49.60
46932;DHT22;32670;51.464;11.964;2023-04-06T02:56:08;21.70;49.40
46932;DHT22;32670;51.464;11.964;2023-04-06T02:58:33;21.70;49.50
46932;DHT22;32670;51.464;11.964;2023-04-06T03:00:59;21.70;49.50
46932;DHT22;32670;51.464;11.964;2023-04-06T03:03:24;21.70;49.40
46932;DHT22;32670;51.464;11.964;2023-04-06T03:05:50;21.70;49.50
46932;DHT22;32670;51.464;11.964;2023-04-06T03:08:15;21.70;49.60
46932;DHT22;32670;51.464;11.964;2023-04-06T03:10:41;21.70;49.50
46932;DHT22;32670;51.464;11.964;2023-04-06T03:13:07;21.70;49.60
46932;DHT22;32670;51.464;11.964;2023-04-06T03:15:32;21.70;49.40
46932;DHT22;32670;51.464;11.964;2023-04-06T03:17:58;21.70;49.30
46932;DHT22;32670;51.464;11.964;2023-04-06T03:20:23;21.70;49.40
46932;DHT22;32670;51.464;11.964;2023-04-06T03:22:49;21.70;49.50
46932;DHT22;32670;51.464;11.964;2023-04-06T03:25:14;21.70;49.70
46932;DHT22;32670;51.464;11.964;2023-04-06T03:27:40;21.70;50.00
46932;DHT22;32670;51.464;11.964;2023-04-06T03:30:06;21.70;49.90
46932;DHT22;32670;51.464;11.964;2023-04-06T03:32:34;21.70;49.90
46932;DHT22;32670;51.464;11.964;2023-04-06T03:34:59;21.80;50.10
46932;DHT22;32670;51.464;11.964;2023-04-06T03:37:25;21.80;50.00
46932;DHT22;32670;51.464;11.964;2023-04-06T03:39:51;21.80;50.00
46932;DHT22;32670;51.464;11.964;2023-04-06T03:42:17;21.70;50.20
46932;DHT22;32670;51.464;11.964;2023-04-06T03:44:42;21.70;50.00
46932;DHT22;32670;51.464;11.964;2023-04-06T03:47:08;21.80;50.10
46932;DHT22;32670;51.464;11.964;2023-04-06T03:49:33;21.80;50.10
46932;DHT22;32670;51.464;11.964;2023-04-06T03:51:59;21.70;50.00
46932;DHT22;32670;51.464;11.964;2023-04-06T03:54:24;21.80;50.00
46932;DHT22;32670;51.464;11.964;2023-04-06T03:56:50;21.80;50.10
46932;DHT22;32670;51.464;11.964;2023-04-06T03:59:15;21.80;50.10
46932;DHT22;32670;51.464;11.964;2023-04-06T04:01:41;21.80;50.10
46932;DHT22;32670;51.464;11.964;2023-04-06T04:04:06;21.80;50.20
46932;DHT22;32670;51.464;11.964;2023-04-06T04:06:32;21.80;50.20
46932;DHT22;32670;51.464;11.964;2023-04-06T04:08:57;21.80;50.30
46932;DHT22;32670;51.464;11.964;2023-04-06T04:11:23;21.70;50.30
46932;DHT22;32670;51.464;11.964;2023-04-06T04:13:48;21.80;50.30
46932;DHT22;32670;51.464;11.964;2023-04-06T04:16:14;21.70;50.20
46932;DHT22;32670;51.464;11.964;2023-04-06T04:18:39;21.80;50.40
46932;DHT22;32670;51.464;11.964;2023-04-06T04:21:05;21.80;50.30
46932;DHT22;32670;51.464;11.964;2023-04-06T04:23:30;21.80;50.40
46932;DHT22;32670;51.464;11.964;2023-04-06T04:25:56;21.80;50.30
46932;DHT22;32670;51.464;11.964;2023-04-06T04:28:21;21.80;49.80
46932;DHT22;32670;51.464;11.964;2023-04-06T04:30:47;21.70;49.40
46932;DHT22;32670;51.464;11.964;2023-04-06T04:33:12;21.80;49.80
46932;DHT22;32670;51.464;11.964;2023-04-06T04:35:37;21.80;50.10
46932;DHT22;32670;51.464;11.964;2023-04-06T04:38:03;21.80;50.30
46932;DHT22;32670;51.464;11.964;2023-04-06T04:40:29;21.80;50.20
46932;DHT22;32670;51.464;11.964;2023-04-06T04:42:54;21.80;50.30
46932;DHT22;32670;51.464;11.964;2023-04-06T04:45:20;21.80;50.40
46932;DHT22;32670;51.464;11.964;2023-04-06T04:47:45;21.80;50.30
46932;DHT22;32670;51.464;11.964;2023-04-06T04:50:11;21.80;50.50
46932;DHT22;32670;51.464;11.964;2023-04-06T04:52:37;21.80;50.60
46932;DHT22;32670;51.464;11.964;2023-04-06T04:55:03;21.80;50.70
46932;DHT22;32670;51.464;11.964;2023-04-06T04:57:28;21.80;50.70
46932;DHT22;32670;51.464;11.964;2023-04-06T04:59:54;21.80;50.90
46932;DHT22;32670;51.464;11.964;2023-04-06T05:02:19;21.80;50.80
46932;DHT22;32670;51.464;11.964;2023-04-06T05:04:45;21.80;50.80
46932;DHT22;32670;51.464;11.964;2023-04-06T05:07:10;21.80;50.70
46932;DHT22;32670;51.464;11.964;2023-04-06T05:09:36;21.80;50.70
46932;DHT22;32670;51.464;11.964;2023-04-06T05:12:01;21.80;50.70
46932;DHT22;32670;51.464;11.964;2023-04-06T05:14:27;21.90;50.80
46932;DHT22;32670;51.464;11.964;2023-04-06T05:16:53;21.80;50.70
46932;DHT22;32670;51.464;11.964;2023-04-06T05:19:19;21.90;50.80
46932;DHT22;32670;51.464;11.964;2023-04-06T05:21:44;21.90;50.90
46932;DHT22;32670;51.464;11.964;2023-04-06T05:24:10;21.90;50.80
46932;DHT22;32670;51.464;11.964;2023-04-06T05:26:35;21.80;50.40
46932;DHT22;32670;51.464;11.964;2023-04-06T05:29:01;21.90;50.30
46932;DHT22;32670;51.464;11.964;2023-04-06T05:31:27;21.90;50.40
46932;DHT22;32670;51.464;11.964;2023-04-06T05:33:52;21.90;50.80
46932;DHT22;32670;51.464;11.964;2023-04-06T05:36:18;21.90;50.10
46932;DHT22;32670;51.464;11.964;2023-04-06T05:38:43;21.90;49.70
46932;DHT22;32670;51.464;11.964;2023-04-06T05:41:09;21.90;49.70
46932;DHT22;32670;51.464;11.964;2023-04-06T05:43:34;21.80;42.40
46932;DHT22;32670;51.464;11.964;2023-04-06T05:46:00;21.50;36.30
46932;DHT22;32670;51.464;11.964;2023-04-06T05:48:25;21.00;33.40
46932;DHT22;32670;51.464;11.964;2023-04-06T05:50:51;20.70;32.50
46932;DHT22;32670;51.464;11.964;2023-04-06T05:53:17;20.40;32.30
46932;DHT22;32670;51.464;11.964;2023-04-06T05:55:42;20.00;32.00
46932;DHT22;32670;51.464;11.964;2023-04-06T05:58:09;19.80;31.80
46932;DHT22;32670;51.464;11.964;2023-04-06T06:00:35;19.70;31.40
46932;DHT22;32670;51.464;11.964;2023-04-06T06:03:00;19.50;31.40
46932;DHT22;32670;51.464;11.964;2023-04-06T06:05:29;19.30;31.20
46932;DHT22;32670;51.464;11.964;2023-04-06T06:07:55;19.30;31.00
46932;DHT22;32670;51.464;11.964;2023-04-06T06:10:20;19.20;31.40
46932;DHT22;32670;51.464;11.964;2023-04-06T06:12:46;19.10;31.00
46932;DHT22;32670;51.464;11.964;2023-04-06T06:15:11;18.90;30.90
46932;DHT22;32670;51.464;11.964;2023-04-06T06:17:37;18.90;31.30
46932;DHT22;32670;51.464;11.964;2023-04-06T06:20:05;18.80;31.00
46932;DHT22;32670;51.464;11.964;2023-04-06T06:22:31;18.80;30.90
46932;DHT22;32670;51.464;11.964;2023-04-06T06:24:56;18.70;31.00
46932;DHT22;32670;51.464;11.964;2023-04-06T06:27:22;18.60;31.00
46932;DHT22;32670;51.464;11.964;2023-04-06T06:29:47;18.60;30.90
46932;DHT22;32670;51.464;11.964;2023-04-06T06:32:13;18.50;31.30
46932;DHT22;32670;51.464;11.964;2023-04-06T06:34:39;18.50;31.10
46932;DHT22;32670;51.464;11.964;2023-04-06T06:37:05;18.50;31.10
46932;DHT22;32670;51.464;11.964;2023-04-06T06:39:31;18.40;31.10
46932;DHT22;32670;51.464;11.964;2023-04-06T06:41:57;18.40;31.00
46932;DHT22;32670;51.464;11.964;2023-04-06T06:44:22;18.30;31.00
46932;DHT22;32670;51.464;11.964;2023-04-06T06:46:48;18.30;30.90
46932;DHT22;32670;51.464;11.964;2023-04-06T06:49:13;18.30;31.00
46932;DHT22;32670;51.464;11.964;2023-04-06T06:51:40;18.20;30.60
46932;DHT22;32670;51.464;11.964;2023-04-06T06:54:05;18.20;30.50
46932;DHT22;32670;51.464;11.964;2023-04-06T06:56:31;18.20;30.70
46932;DHT22;32670;51.464;11.964;2023-04-06T06:58:56;18.10;30.50
46932;DHT22;32670;51.464;11.964;2023-04-06T07:01:22;18.10;30.70
46932;DHT22;32670;51.464;11.964;2023-04-06T07:03:47;18.10;30.60
46932;DHT22;32670;51.464;11.964;2023-04-06T07:06:12;18.10;30.80
46932;DHT22;32670;51.464;11.964;2023-04-06T07:08:38;18.10;30.80
46932;DHT22;32670;51.464;11.964;2023-04-06T07:11:03;18.00;30.40
46932;DHT22;32670;51.464;11.964;2023-04-06T07:13:29;18.00;30.50
46932;DHT22;32670;51.464;11.964;2023-04-06T07:15:54;18.00;30.70
46932;DHT22;32670;51.464;11.964;2023-04-06T07:18:22;18.00;30.40
46932;DHT22;32670;51.464;11.964;2023-04-06T07:20:48;17.90;30.20
46932;DHT22;32670;51.464;11.964;2023-04-06T07:23:13;17.80;30.30
46932;DHT22;32670;51.464;11.964;2023-04-06T07:25:39;17.90;30.50
46932;DHT22;32670;51.464;11.964;2023-04-06T07:28:04;17.90;30.90
46932;DHT22;32670;51.464;11.964;2023-04-06T07:30:30;17.90;31.00
46932;DHT22;32670;51.464;11.964;2023-04-06T07:32:55;17.90;32.00
46932;DHT22;32670;51.464;11.964;2023-04-06T07:35:25;18.00;33.00
46932;DHT22;32670;51.464;11.964;2023-04-06T07:37:55;18.20;34.00
46932;DHT22;32670;51.464;11.964;2023-04-06T07:40:21;18.40;34.10
46932;DHT22;32670;51.464;11.964;2023-04-06T07:42:47;18.50;34.20
46932;DHT22;32670;51.464;11.964;2023-04-06T07:45:13;18.70;34.30
46932;DHT22;32670;51.464;11.964;2023-04-06T07:47:38;18.70;34.40
46932;DHT22;32670;51.464;11.964;2023-04-06T07:50:04;18.80;34.60
46932;DHT22;32670;51.464;11.964;2023-04-06T07:52:30;18.90;34.70
46932;DHT22;32670;51.464;11.964;2023-04-06T07:54:57;19.00;34.80
46932;DHT22;32670;51.464;11.964;2023-04-06T07:57:23;19.00;34.90
46932;DHT22;32670;51.464;11.964;2023-04-06T07:59:48;19.10;35.10
46932;DHT22;32670;51.464;11.964;2023-04-06T08:02:14;19.10;35.20
46932;DHT22;32670;51.464;11.964;2023-04-06T08:04:39;19.10;35.20
46932;DHT22;32670;51.464;11.964;2023-04-06T08:07:05;19.20;35.50
46932;DHT22;32670;51.464;11.964;2023-04-06T08:09:30;19.20;35.60
46932;DHT22;32670;51.464;11.964;2023-04-06T08:11:56;19.20;35.70
46932;DHT22;32670;51.464;11.964;2023-04-06T08:14:21;19.30;36.00
46932;DHT22;32670;51.464;11.964;2023-04-06T08:16:47;19.30;36.00
46932;DHT22;32670;51.464;11.964;2023-04-06T08:19:12;19.30;36.30
46932;DHT22;32670;51.464;11.964;2023-04-06T08:21:38;19.40;36.30
46932;DHT22;32670;51.464;11.964;2023-04-06T08:24:05;19.40;36.40
46932;DHT22;32670;51.464;11.964;2023-04-06T08:26:31;19.40;36.50
46932;DHT22;32670;51.464;11.964;2023-04-06T08:28:57;19.40;36.50
46932;DHT22;32670;51.464;11.964;2023-04-06T08:31:22;19.40;36.70
46932;DHT22;32670;51.464;11.964;2023-04-06T08:33:47;19.50;36.80
46932;DHT22;32670;51.464;11.964;2023-04-06T08:36:14;19.50;36.50
46932;DHT22;32670;51.464;11.964;2023-04-06T08:38:40;19.50;36.80
46932;DHT22;32670;51.464;11.964;2023-04-06T08:41:07;19.50;37.40
46932;DHT22;32670;51.464;11.964;2023-04-06T08:43:37;19.50;36.70
46932;DHT22;32670;51.464;11.964;2023-04-06T08:46:04;19.60;36.70
46932;DHT22;32670;51.464;11.964;2023-04-06T08:48:30;19.60;37.00
46932;DHT22;32670;51.464;11.964;2023-04-06T08:50:56;19.60;36.90
46932;DHT22;32670;51.464;11.964;2023-04-06T08:53:21;19.60;37.00
46932;DHT22;32670;51.464;11.964;2023-04-06T08:55:47;19.60;37.10
46932;DHT22;32670;51.464;11.964;2023-04-06T08:58:13;19.70;37.30
46932;DHT22;32670;51.464;11.964;2023-04-06T09:00:40;19.60;37.20
46932;DHT22;32670;51.464;11.964;2023-04-06T09:03:06;19.70;37.30
46932;DHT22;32670;51.464;11.964;2023-04-06T09:05:32;19.70;37.30
46932;DHT22;32670;51.464;11.964;2023-04-06T09:07:58;19.70;37.30
46932;DHT22;32670;51.464;11.964;2023-04-06T09:10:23;19.70;37.30
46932;DHT22;32670;51.464;11.964;2023-04-06T09:12:50;19.60;37.30
46932;DHT22;32670;51.464;11.964;2023-04-06T09:15:20;19.70;37.30
46932;DHT22;32670;51.464;11.964;2023-04-06T09:17:46;19.70;37.30
46932;DHT22;32670;51.464;11.964;2023-04-06T09:20:12;19.70;37.40
46932;DHT22;32670;51.464;11.964;2023-04-06T09:22:39;19.70;37.40
46932;DHT22;32670;51.464;11.964;2023-04-06T09:25:05;19.80;37.60
46932;DHT22;32670;51.464;11.964;2023-04-06T09:27:36;19.70;37.50
46932;DHT22;32670;51.464;11.964;2023-04-06T09:30:10;19.80;37.60
46932;DHT22;32670;51.464;11.964;2023-04-06T09:32:46;19.70;37.50
46932;DHT22;32670;51.464;11.964;2023-04-06T09:35:12;19.80;37.60
46932;DHT22;32670;51.464;11.964;2023-04-06T09:37:37;19.80;37.60
46932;DHT22;32670;51.464;11.964;2023-04-06T09:40:07;19.80;37.60
46932;DHT22;32670;51.464;11.964;2023-04-06T09:42:33;19.80;37.60
46932;DHT22;32670;51.464;11.964;2023-04-06T09:45:00;19.80;37.70
46932;DHT22;32670;51.464;11.964;2023-04-06T09:47:26;19.80;37.70
46932;DHT22;32670;51.464;11.964;2023-04-06T09:49:56;19.80;37.70
46932;DHT22;32670;51.464;11.964;2023-04-06T09:52:33;19.80;37.80
46932;DHT22;32670;51.464;11.964;2023-04-06T09:55:04;19.80;37.70
46932;DHT22;32670;51.464;11.964;2023-04-06T09:57:41;19.80;37.70
46932;DHT22;32670;51.464;11.964;2023-04-06T10:00:09;19.90;37.80
46932;DHT22;32670;51.464;11.964;2023-04-06T10:05:36;19.90;37.90
46932;DHT22;32670;51.464;11.964;2023-04-06T10:08:06;19.90;37.90
46932;DHT22;32670;51.464;11.964;2023-04-06T10:10:33;19.90;37.90
46932;DHT22;32670;51.464;11.964;2023-04-06T10:13:00;19.90;37.90
46932;DHT22;32670;51.464;11.964;2023-04-06T10:15:28;19.90;37.90
46932;DHT22;32670;51.464;11.964;2023-04-06T10:17:54;19.90;38.00
46932;DHT22;32670;51.464;11.964;2023-04-06T10:20:41;19.90;37.90
46932;DHT22;32670;51.464;11.964;2023-04-06T10:25:55;19.90;38.00
46932;DHT22;32670;51.464;11.964;2023-04-06T10:28:22;19.90;38.00
46932;DHT22;32670;51.464;11.964;2023-04-06T10:30:47;20.00;38.00
46932;DHT22;32670;51.464;11.964;2023-04-06T10:33:20;19.90;38.00
46932;DHT22;32670;51.464;11.964;2023-04-06T10:35:46;20.00;38.10
46932;DHT22;32670;51.464;11.964;2023-04-06T10:38:12;20.00;38.10
46932;DHT22;32670;51.464;11.964;2023-04-06T10:40:40;20.00;38.10
46932;DHT22;32670;51.464;11.964;2023-04-06T10:43:19;20.00;38.20
46932;DHT22;32670;51.464;11.964;2023-04-06T10:45:55;20.00;38.20
46932;DHT22;32670;51.464;11.964;2023-04-06T10:48:20;20.00;38.20
46932;DHT22;32670;51.464;11.964;2023-04-06T10:50:51;20.00;38.20
46932;DHT22;32670;51.464;11.964;2023-04-06T10:53:35;20.00;38.20
46932;DHT22;32670;51.464;11.964;2023-04-06T10:56:02;20.00;38.20
46932;DHT22;32670;51.464;11.964;2023-04-06T10:58:28;20.00;38.20
46932;DHT22;32670;51.464;11.964;2023-04-06T11:00:56;20.00;38.20
46932;DHT22;32670;51.464;11.964;2023-04-06T11:03:21;20.00;38.20
46932;DHT22;32670;51.464;11.964;2023-04-06T11:05:49;20.00;38.20
46932;DHT22;32670;51.464;11.964;2023-04-06T11:08:32;20.00;38.30
46932;DHT22;32670;51.464;11.964;2023-04-06T11:11:11;20.00;38.30
46932;DHT22;32670;51.464;11.964;2023-04-06T11:13:52;20.00;38.30
46932;DHT22;32670;51.464;11.964;2023-04-06T11:16:19;20.00;38.30
46932;DHT22;32670;51.464;11.964;2023-04-06T11:18:50;20.00;38.30
46932;DHT22;32670;51.464;11.964;2023-04-06T11:21:16;20.00;38.30
46932;DHT22;32670;51.464;11.964;2023-04-06T11:23:42;20.00;38.40
46932;DHT22;32670;51.464;11.964;2023-04-06T11:26:14;20.10;38.40
46932;DHT22;32670;51.464;11.964;2023-04-06T11:28:41;20.10;38.40
46932;DHT22;32670;51.464;11.964;2023-04-06T11:31:09;20.10;38.40
46932;DHT22;32670;51.464;11.964;2023-04-06T11:33:39;20.10;38.40
46932;DHT22;32670;51.464;11.964;2023-04-06T11:36:05;20.10;38.40
46932;DHT22;32670;51.464;11.964;2023-04-06T11:38:31;20.10;38.40
46932;DHT22;32670;51.464;11.964;2023-04-06T11:40:57;20.10;38.40
46932;DHT22;32670;51.464;11.964;2023-04-06T11:43:29;20.10;38.40
46932;DHT22;32670;51.464;11.964;2023-04-06T11:46:03;20.10;38.40
46932;DHT22;32670;51.464;11.964;2023-04-06T11:48:29;20.10;38.40
46932;DHT22;32670;51.464;11.964;2023-04-06T11:50:58;20.10;38.40
46932;DHT22;32670;51.464;11.964;2023-04-06T11:53:29;20.10;38.40
46932;DHT22;32670;51.464;11.964;2023-04-06T11:55:55;20.10;38.50
46932;DHT22;32670;51.464;11.964;2023-04-06T11:58:21;20.10;38.50
46932;DHT22;32670;51.464;11.964;2023-04-06T12:00:46;20.10;38.50
46932;DHT22;32670;51.464;11.964;2023-04-06T12:03:12;20.20;38.50
46932;DHT22;32670;51.464;11.964;2023-04-06T12:05:38;20.20;38.50
46932;DHT22;32670;51.464;11.964;2023-04-06T12:08:03;20.10;38.50
46932;DHT22;32670;51.464;11.964;2023-04-06T12:10:29;20.10;39.00
46932;DHT22;32670;51.464;11.964;2023-04-06T12:12:55;20.20;39.10
46932;DHT22;32670;51.464;11.964;2023-04-06T12:15:20;20.20;39.20
46932;DHT22;32670;51.464;11.964;2023-04-06T12:17:46;20.20;39.00
46932;DHT22;32670;51.464;11.964;2023-04-06T12:20:11;20.20;38.90
46932;DHT22;32670;51.464;11.964;2023-04-06T12:22:37;20.20;38.90
46932;DHT22;32670;51.464;11.964;2023-04-06T12:25:02;20.20;38.90
46932;DHT22;32670;51.464;11.964;2023-04-06T12:27:28;20.20;38.80
46932;DHT22;32670;51.464;11.964;2023-04-06T12:29:53;20.20;38.80
46932;DHT22;32670;51.464;11.964;2023-04-06T12:32:19;20.20;38.70
46932;DHT22;32670;51.464;11.964;2023-04-06T12:34:44;20.20;38.80
46932;DHT22;32670;51.464;11.964;2023-04-06T12:37:10;20.30;38.80
46932;DHT22;32670;51.464;11.964;2023-04-06T12:39:35;20.30;38.80
46932;DHT22;32670;51.464;11.964;2023-04-06T12:42:01;20.20;38.70
46932;DHT22;32670;51.464;11.964;2023-04-06T12:44:28;20.30;38.80
46932;DHT22;32670;51.464;11.964;2023-04-06T12:46:53;20.30;38.80
46932;DHT22;32670;51.464;11.964;2023-04-06T12:49:19;20.30;38.80
46932;DHT22;32670;51.464;11.964;2023-04-06T12:51:45;20.30;38.80
46932;DHT22;32670;51.464;11.964;2023-04-06T12:54:10;20.30;38.80
46932;DHT22;32670;51.464;11.964;2023-04-06T12:56:37;20.30;38.80
46932;DHT22;32670;51.464;11.964;2023-04-06T12:59:02;20.30;38.80
46932;DHT22;32670;51.464;11.964;2023-04-06T13:01:28;20.30;38.80
46932;DHT22;32670;51.464;11.964;2023-04-06T13:03:54;20.30;38.80
46932;DHT22;32670;51.464;11.964;2023-04-06T13:06:19;20.30;38.80
46932;DHT22;32670;51.464;11.964;2023-04-06T13:08:45;20.30;38.70
46932;DHT22;32670;51.464;11.964;2023-04-06T13:11:12;20.30;38.80
46932;DHT22;32670;51.464;11.964;2023-04-06T13:13:38;20.30;38.80
46932;DHT22;32670;51.464;11.964;2023-04-06T13:16:06;20.30;38.80
46932;DHT22;32670;51.464;11.964;2023-04-06T13:18:31;20.30;38.80
46932;DHT22;32670;51.464;11.964;2023-04-06T13:20:58;20.30;38.80
46932;DHT22;32670;51.464;11.964;2023-04-06T13:23:24;20.30;38.80
46932;DHT22;32670;51.464;11.964;2023-04-06T13:26:01;20.30;38.80
46932;DHT22;32670;51.464;11.964;2023-04-06T13:28:27;20.30;38.80
46932;DHT22;32670;51.464;11.964;2023-04-06T13:30:53;20.30;38.80
46932;DHT22;32670;51.464;11.964;2023-04-06T13:33:19;20.30;38.80
46932;DHT22;32670;51.464;11.964;2023-04-06T13:35:45;20.40;39.20
46932;DHT22;32670;51.464;11.964;2023-04-06T13:38:11;20.40;39.60
46932;DHT22;32670;51.464;11.964;2023-04-06T13:40:39;20.40;39.40
46932;DHT22;32670;51.464;11.964;2023-04-06T13:43:05;20.30;39.20
46932;DHT22;32670;51.464;11.964;2023-04-06T13:45:30;20.40;39.20
46932;DHT22;32670;51.464;11.964;2023-04-06T13:47:56;20.40;39.20
46932;DHT22;32670;51.464;11.964;2023-04-06T13:50:21;20.40;39.30
46932;DHT22;32670;51.464;11.964;2023-04-06T13:52:47;20.40;39.20
46932;DHT22;32670;51.464;11.964;2023-04-06T13:55:12;20.40;39.20
46932;DHT22;32670;51.464;11.964;2023-04-06T13:57:38;20.40;39.20
46932;DHT22;32670;51.464;11.964;2023-04-06T14:00:04;20.40;39.10
46932;DHT22;32670;51.464;11.964;2023-04-06T14:02:30;20.40;39.10
46932;DHT22;32670;51.464;11.964;2023-04-06T14:04:55;20.40;39.10
46932;DHT22;32670;51.464;11.964;2023-04-06T14:07:21;20.40;39.10
46932;DHT22;32670;51.464;11.964;2023-04-06T14:09:47;20.40;39.10
46932;DHT22;32670;51.464;11.964;2023-04-06T14:12:12;20.40;39.10
46932;DHT22;32670;51.464;11.964;2023-04-06T14:14:38;20.40;39.10
46932;DHT22;32670;51.464;11.964;2023-04-06T14:17:03;20.40;39.10
46932;DHT22;32670;51.464;11.964;2023-04-06T14:19:29;20.40;39.10
46932;DHT22;32670;51.464;11.964;2023-04-06T14:21:55;20.40;39.00
46932;DHT22;32670;51.464;11.964;2023-04-06T14:24:21;20.40;39.00
46932;DHT22;32670;51.464;11.964;2023-04-06T14:26:47;20.40;39.00
46932;DHT22;32670;51.464;11.964;2023-04-06T14:29:12;20.40;39.00
46932;DHT22;32670;51.464;11.964;2023-04-06T14:31:38;20.40;39.00
46932;DHT22;32670;51.464;11.964;2023-04-06T14:34:03;20.40;39.00
46932;DHT22;32670;51.464;11.964;2023-04-06T14:36:31;20.40;39.00
46932;DHT22;32670;51.464;11.964;2023-04-06T14:39:04;20.40;39.00
46932;DHT22;32670;51.464;11.964;2023-04-06T14:41:31;20.40;39.00
46932;DHT22;32670;51.464;11.964;2023-04-06T14:43:58;20.40;39.00
46932;DHT22;32670;51.464;11.964;2023-04-06T14:46:23;20.40;39.00
46932;DHT22;32670;51.464;11.964;2023-04-06T14:48:49;20.40;39.00
46932;DHT22;32670;51.464;11.964;2023-04-06T14:51:16;20.50;39.10
46932;DHT22;32670;51.464;11.964;2023-04-06T14:53:42;20.50;39.00
46932;DHT22;32670;51.464;11.964;2023-04-06T14:56:08;20.50;39.00
46932;DHT22;32670;51.464;11.964;2023-04-06T14:58:33;20.50;39.10
46932;DHT22;32670;51.464;11.964;2023-04-06T15:00:59;20.50;39.00
46932;DHT22;32670;51.464;11.964;2023-04-06T15:03:29;20.50;39.10
46932;DHT22;32670;51.464;11.964;2023-04-06T15:05:55;20.50;39.10
46932;DHT22;32670;51.464;11.964;2023-04-06T15:08:24;20.50;39.20
46932;DHT22;32670;51.464;11.964;2023-04-06T15:10:50;20.50;39.20
46932;DHT22;32670;51.464;11.964;2023-04-06T15:13:16;20.50;39.10
46932;DHT22;32670;51.464;11.964;2023-04-06T15:15:42;20.50;39.00